Monte Sarmiento — DCLH2 — position and weather

sailwx.info

Track history (hours):
 
Tides and Currents Weather Stations Pressure Air Temp Water Temp Dewpoint Dewpoint Depression Visibility Wind Speed Wind Dir Waves Ship Positions

Monte Sarmiento

Last reported at 2017-Sep-18 09:00 UTC. Time now 2017-Sep-19 17:22 UTC.
Position S 22°54' W 041°42'.

Length 272 m; beam 40 m; draft 12.5 m.

Type: Cargo ship. MMSI: 211738000.

Wind from 040 at 19 knots

Barometer 1021.0 mb
Air temperature 21.7 ° C
Visibility: greater than 2.2 NM
Dewpoint 18.1 ° C
Water temperature 19.0 ° C

Date/timePositionNaut miles runAvg speedWind from/ knotsBaromVisibWave heightAir tempDewpointWater temp
2017-Sep-18 09:00S 22°54' W 041°42'196 4.9 040 / 191021.0 2.2 21.718.119.0
2017-Sep-16 16:35S 23°57' W 045°04'112.3
2017-Sep-16 16:30S 23°58' W 045°05'4614.1
2017-Sep-16 13:14S 24°02' W 045°56'514.6
2017-Sep-16 12:54S 24°03' W 046°01'614.8
2017-Sep-16 12:30S 24°04' W 046°07'815.0
2017-Sep-16 12:01S 24°04' W 046°15'611.6
2017-Sep-16 11:30S 24°01' W 046°20'3 6.5
2017-Sep-16 10:58S 23°58' W 046°17'0 0.9
2017-Sep-16 10:30S 23°58' W 046°17'0 0.0
2017-Sep-16 09:58S 23°58' W 046°17'0 0.0
2017-Sep-16 09:16S 23°58' W 046°17'0 0.0
2017-Sep-16 08:58S 23°58' W 046°17'0 0.0
2017-Sep-16 08:28S 23°58' W 046°17'0 0.0
2017-Sep-16 07:58S 23°58' W 046°17'0 0.0
2017-Sep-16 07:22S 23°58' W 046°17'0 0.0
2017-Sep-16 06:55S 23°58' W 046°17'0 0.0
2017-Sep-16 06:28S 23°58' W 046°17'0 0.0
2017-Sep-16 05:58S 23°58' W 046°17'0 0.0
2017-Sep-16 05:01S 23°58' W 046°17'0 0.0
2017-Sep-16 04:40S 23°58' W 046°17'0 0.0
2017-Sep-16 04:25S 23°58' W 046°17'0 0.0
2017-Sep-16 03:52S 23°58' W 046°17'0 0.0
2017-Sep-16 03:22S 23°58' W 046°17'0 0.0
2017-Sep-16 02:58S 23°58' W 046°17'0 0.0
2017-Sep-16 02:28S 23°58' W 046°17'0 0.0
2017-Sep-16 01:58S 23°58' W 046°17'0 0.0
2017-Sep-16 01:28S 23°58' W 046°17'0 0.0
2017-Sep-16 00:52S 23°58' W 046°17'0 0.0
2017-Sep-16 00:28S 23°58' W 046°17'0 0.0
2017-Sep-15 23:55S 23°58' W 046°17'0 0.0
2017-Sep-15 23:28S 23°58' W 046°17'0 0.0
2017-Sep-15 22:49S 23°58' W 046°17'0 0.0
2017-Sep-15 22:28S 23°58' W 046°17'0 0.0
2017-Sep-15 22:00S 23°58' W 046°17'0 0.0
2017-Sep-15 21:30S 23°58' W 046°17'0 0.0
2017-Sep-15 21:00S 23°58' W 046°17'0 0.0
2017-Sep-15 20:30S 23°58' W 046°17'0 0.0
2017-Sep-15 20:00S 23°58' W 046°17'0 0.0
2017-Sep-15 19:30S 23°58' W 046°17'0 0.0
2017-Sep-15 19:00S 23°58' W 046°17'0 0.0
2017-Sep-15 18:30S 23°58' W 046°17'0 0.0
2017-Sep-15 17:59S 23°58' W 046°17'0 0.0
2017-Sep-15 17:30S 23°58' W 046°17'0 0.0
2017-Sep-15 17:00S 23°58' W 046°17'0 0.0
2017-Sep-15 16:30S 23°58' W 046°17'0 0.0
2017-Sep-15 15:59S 23°58' W 046°17'0 0.0
2017-Sep-15 15:28S 23°58' W 046°17'0 0.0
2017-Sep-15 14:53S 23°58' W 046°17'0 0.0
2017-Sep-15 14:27S 23°58' W 046°17'0 0.0
2017-Sep-15 13:53S 23°58' W 046°17'0 0.0
2017-Sep-15 13:11S 23°58' W 046°17'0 0.0
2017-Sep-15 12:09S 23°58' W 046°17'0 0.0
2017-Sep-15 12:00S 23°58' W 046°17'0 0.3
2017-Sep-15 11:30S 23°58' W 046°17'3 6.5
2017-Sep-15 11:00S 24°00' W 046°20'4 8.5
2017-Sep-15 10:30S 24°04' W 046°22'611.4
2017-Sep-15 10:00S 24°10' W 046°23'0 0.6
2017-Sep-15 09:30S 24°10' W 046°24'0 0.9
2017-Sep-15 09:00S 24°10' W 046°23'0 0.9
2017-Sep-15 08:30S 24°09' W 046°23'0 0.5
2017-Sep-15 08:00S 24°09' W 046°23'0 0.4
2017-Sep-15 07:30S 24°09' W 046°22'2 4.4
2017-Sep-15 07:01S 24°10' W 046°24'816.5
2017-Sep-15 06:31S 24°18' W 046°28'917.9
2017-Sep-15 06:01S 24°26' W 046°32'917.5
2017-Sep-15 05:31S 24°34' W 046°35'917.6
2017-Sep-15 05:00S 24°39' W 046°43'917.4
2017-Sep-15 04:31S 24°44' W 046°51'917.5
2017-Sep-15 04:01S 24°49' W 046°59'917.3
2017-Sep-15 03:31S 24°54' W 047°07'917.3
2017-Sep-15 03:01S 24°60' W 047°14'917.2
2017-Sep-15 02:30S 25°05' W 047°22'917.2
2017-Sep-15 02:01S 25°10' W 047°30'917.2
2017-Sep-15 01:31S 25°15' W 047°38'917.2
2017-Sep-15 01:00S 25°20' W 047°45'817.2
2017-Sep-15 00:31S 25°25' W 047°53'916.9
2017-Sep-14 23:59S 25°30' W 048°01'715.1
2017-Sep-14 23:30S 25°34' W 048°08'713.9
2017-Sep-14 23:00S 25°38' W 048°14'5 9.7
2017-Sep-14 22:30S 25°35' W 048°19'  
2017-Sep-11 22:43S 26°02' W 048°14'312.7
2017-Sep-11 22:31S 26°00' W 048°12'4512.2
2017-Sep-11 18:48S 25°30' W 047°35'512.2
2017-Sep-11 18:23S 25°26' W 047°31'1619.4
2017-Sep-11 17:34S 25°16' W 047°18'220.4
2017-Sep-11 17:29S 25°15' W 047°17'1320.4
2017-Sep-11 16:52S 25°06' W 047°06'720.4
2017-Sep-11 16:30S 25°01' W 047°01'1019.7
2017-Sep-11 16:00S 24°55' W 046°52'1020.4
2017-Sep-11 15:30S 24°46' W 046°47'1020.3
2017-Sep-11 15:01S 24°37' W 046°41'1020.5
2017-Sep-11 14:30S 24°28' W 046°36'1020.4
2017-Sep-11 14:00S 24°20' W 046°30'1020.3
2017-Sep-11 13:30S 24°11' W 046°25'917.3
2017-Sep-11 13:00S 24°02' W 046°21'4 8.2
2017-Sep-11 12:31S 23°60' W 046°18'2 3.7
2017-Sep-11 12:00S 23°58' W 046°18'0 0.0
2017-Sep-11 11:31S 23°58' W 046°18'0 0.0
2017-Sep-10 15:33S 23°58' W 046°18'0 0.0
2017-Sep-10 15:24S 23°58' W 046°18'0 0.3
2017-Sep-10 14:57S 23°58' W 046°18'5 5.4
2017-Sep-10 14:00S 24°03' W 046°20'4 8.4
2017-Sep-10 13:30S 24°04' W 046°15'4 8.6
2017-Sep-10 13:00S 24°05' W 046°11'2 3.7
2017-Sep-10 12:30S 24°05' W 046°09'2 3.9
2017-Sep-10 12:00S 24°05' W 046°07'4 7.9
2017-Sep-10 11:30S 24°03' W 046°03'3012.1
2017-Sep-10 09:00S 24°00' W 045°30'215.9 250 / 61017.0 0.5 19.416.818.0
2017-Sep-10 08:51S 23°60' W 045°28'514.3
2017-Sep-10 08:30S 23°60' W 045°22'714.4
2017-Sep-10 08:00S 23°60' W 045°14'34715.1
2017-Sep-09 09:00S 21°18' W 039°42'18315.3 070 / 161021.010.8 21.617.023.0
2017-Sep-08 21:00S 18°42' W 038°00'18315.3 110 / 211019.010.8 22.618.624.0
2017-Sep-08 09:00S 15°48' W 037°00'   150 / 151016.910.8 23.018.724.0
Track history (hours):
 
Tides and Currents Weather Stations Pressure Air Temp Water Temp Dewpoint Dewpoint Depression Visibility Wind Speed Wind Dir Waves Ship Positions

Monte Sarmiento

Last reported at 2017-Sep-18 09:00 UTC. Time now 2017-Sep-19 17:22 UTC.
Position S 22°54' W 041°42'.

Length 272 m; beam 40 m; draft 12.5 m.

Type: Cargo ship. MMSI: 211738000.

Wind from 040 at 19 knots

Barometer 1021.0 mb
Air temperature 21.7 ° C
Visibility: greater than 2.2 NM
Dewpoint 18.1 ° C
Water temperature 19.0 ° C

Date/timePositionNaut miles runAvg speedWind from/ knotsBaromVisibWave heightAir tempDewpointWater temp
2017-Sep-18 09:00S 22°54' W 041°42'196 4.9 040 / 191021.0 2.2 21.718.119.0
2017-Sep-16 16:35S 23°57' W 045°04'112.3
2017-Sep-16 16:30S 23°58' W 045°05'4614.1
2017-Sep-16 13:14S 24°02' W 045°56'514.6
2017-Sep-16 12:54S 24°03' W 046°01'614.8
2017-Sep-16 12:30S 24°04' W 046°07'815.0
2017-Sep-16 12:01S 24°04' W 046°15'611.6
2017-Sep-16 11:30S 24°01' W 046°20'3 6.5
2017-Sep-16 10:58S 23°58' W 046°17'0 0.9
2017-Sep-16 10:30S 23°58' W 046°17'0 0.0
2017-Sep-16 09:58S 23°58' W 046°17'0 0.0
2017-Sep-16 09:16S 23°58' W 046°17'0 0.0
2017-Sep-16 08:58S 23°58' W 046°17'0 0.0
2017-Sep-16 08:28S 23°58' W 046°17'0 0.0
2017-Sep-16 07:58S 23°58' W 046°17'0 0.0
2017-Sep-16 07:22S 23°58' W 046°17'0 0.0
2017-Sep-16 06:55S 23°58' W 046°17'0 0.0
2017-Sep-16 06:28S 23°58' W 046°17'0 0.0
2017-Sep-16 05:58S 23°58' W 046°17'0 0.0
2017-Sep-16 05:01S 23°58' W 046°17'0 0.0
2017-Sep-16 04:40S 23°58' W 046°17'0 0.0
2017-Sep-16 04:25S 23°58' W 046°17'0 0.0
2017-Sep-16 03:52S 23°58' W 046°17'0 0.0
2017-Sep-16 03:22S 23°58' W 046°17'0 0.0
2017-Sep-16 02:58S 23°58' W 046°17'0 0.0
2017-Sep-16 02:28S 23°58' W 046°17'0 0.0
2017-Sep-16 01:58S 23°58' W 046°17'0 0.0
2017-Sep-16 01:28S 23°58' W 046°17'0 0.0
2017-Sep-16 00:52S 23°58' W 046°17'0 0.0
2017-Sep-16 00:28S 23°58' W 046°17'0 0.0
2017-Sep-15 23:55S 23°58' W 046°17'0 0.0
2017-Sep-15 23:28S 23°58' W 046°17'0 0.0
2017-Sep-15 22:49S 23°58' W 046°17'0 0.0
2017-Sep-15 22:28S 23°58' W 046°17'0 0.0
2017-Sep-15 22:00S 23°58' W 046°17'0 0.0
2017-Sep-15 21:30S 23°58' W 046°17'0 0.0
2017-Sep-15 21:00S 23°58' W 046°17'0 0.0
2017-Sep-15 20:30S 23°58' W 046°17'0 0.0
2017-Sep-15 20:00S 23°58' W 046°17'0 0.0
2017-Sep-15 19:30S 23°58' W 046°17'0 0.0
2017-Sep-15 19:00S 23°58' W 046°17'0 0.0
2017-Sep-15 18:30S 23°58' W 046°17'0 0.0
2017-Sep-15 17:59S 23°58' W 046°17'0 0.0
2017-Sep-15 17:30S 23°58' W 046°17'0 0.0
2017-Sep-15 17:00S 23°58' W 046°17'0 0.0
2017-Sep-15 16:30S 23°58' W 046°17'0 0.0
2017-Sep-15 15:59S 23°58' W 046°17'0 0.0
2017-Sep-15 15:28S 23°58' W 046°17'0 0.0
2017-Sep-15 14:53S 23°58' W 046°17'0 0.0
2017-Sep-15 14:27S 23°58' W 046°17'0 0.0
2017-Sep-15 13:53S 23°58' W 046°17'0 0.0
2017-Sep-15 13:11S 23°58' W 046°17'0 0.0
2017-Sep-15 12:09S 23°58' W 046°17'0 0.0
2017-Sep-15 12:00S 23°58' W 046°17'0 0.3
2017-Sep-15 11:30S 23°58' W 046°17'3 6.5
2017-Sep-15 11:00S 24°00' W 046°20'4 8.5
2017-Sep-15 10:30S 24°04' W 046°22'611.4
2017-Sep-15 10:00S 24°10' W 046°23'0 0.6
2017-Sep-15 09:30S 24°10' W 046°24'0 0.9
2017-Sep-15 09:00S 24°10' W 046°23'0 0.9
2017-Sep-15 08:30S 24°09' W 046°23'0 0.5
2017-Sep-15 08:00S 24°09' W 046°23'0 0.4
2017-Sep-15 07:30S 24°09' W 046°22'2 4.4
2017-Sep-15 07:01S 24°10' W 046°24'816.5
2017-Sep-15 06:31S 24°18' W 046°28'917.9
2017-Sep-15 06:01S 24°26' W 046°32'917.5
2017-Sep-15 05:31S 24°34' W 046°35'917.6
2017-Sep-15 05:00S 24°39' W 046°43'917.4
2017-Sep-15 04:31S 24°44' W 046°51'917.5
2017-Sep-15 04:01S 24°49' W 046°59'917.3
2017-Sep-15 03:31S 24°54' W 047°07'917.3
2017-Sep-15 03:01S 24°60' W 047°14'917.2
2017-Sep-15 02:30S 25°05' W 047°22'917.2
2017-Sep-15 02:01S 25°10' W 047°30'917.2
2017-Sep-15 01:31S 25°15' W 047°38'917.2
2017-Sep-15 01:00S 25°20' W 047°45'817.2
2017-Sep-15 00:31S 25°25' W 047°53'916.9
2017-Sep-14 23:59S 25°30' W 048°01'715.1
2017-Sep-14 23:30S 25°34' W 048°08'713.9
2017-Sep-14 23:00S 25°38' W 048°14'5 9.7
2017-Sep-14 22:30S 25°35' W 048°19'  
2017-Sep-11 22:43S 26°02' W 048°14'312.7
2017-Sep-11 22:31S 26°00' W 048°12'4512.2
2017-Sep-11 18:48S 25°30' W 047°35'512.2
2017-Sep-11 18:23S 25°26' W 047°31'1619.4
2017-Sep-11 17:34S 25°16' W 047°18'220.4
2017-Sep-11 17:29S 25°15' W 047°17'1320.4
2017-Sep-11 16:52S 25°06' W 047°06'720.4
2017-Sep-11 16:30S 25°01' W 047°01'1019.7
2017-Sep-11 16:00S 24°55' W 046°52'1020.4
2017-Sep-11 15:30S 24°46' W 046°47'1020.3
2017-Sep-11 15:01S 24°37' W 046°41'1020.5
2017-Sep-11 14:30S 24°28' W 046°36'1020.4
2017-Sep-11 14:00S 24°20' W 046°30'1020.3
2017-Sep-11 13:30S 24°11' W 046°25'917.3
2017-Sep-11 13:00S 24°02' W 046°21'4 8.2
2017-Sep-11 12:31S 23°60' W 046°18'2 3.7
2017-Sep-11 12:00S 23°58' W 046°18'0 0.0
2017-Sep-11 11:31S 23°58' W 046°18'0 0.0
2017-Sep-10 15:33S 23°58' W 046°18'0 0.0
2017-Sep-10 15:24S 23°58' W 046°18'0 0.3
2017-Sep-10 14:57S 23°58' W 046°18'5 5.4
2017-Sep-10 14:00S 24°03' W 046°20'4 8.4
2017-Sep-10 13:30S 24°04' W 046°15'4 8.6
2017-Sep-10 13:00S 24°05' W 046°11'2 3.7
2017-Sep-10 12:30S 24°05' W 046°09'2 3.9
2017-Sep-10 12:00S 24°05' W 046°07'4 7.9
2017-Sep-10 11:30S 24°03' W 046°03'3012.1
2017-Sep-10 09:00S 24°00' W 045°30'215.9 250 / 61017.0 0.5 19.416.818.0
2017-Sep-10 08:51S 23°60' W 045°28'514.3
2017-Sep-10 08:30S 23°60' W 045°22'714.4
2017-Sep-10 08:00S 23°60' W 045°14'34715.1
2017-Sep-09 09:00S 21°18' W 039°42'18315.3 070 / 161021.010.8 21.617.023.0
2017-Sep-08 21:00S 18°42' W 038°00'18315.3 110 / 211019.010.8 22.618.624.0
2017-Sep-08 09:00S 15°48' W 037°00'   150 / 151016.910.8 23.018.724.0

Dump ship's entire track history